Time;durP1;ratioP1;P1;durP2;ratioP2;P2;SDS_P1;SDS_P2;PMS_P1;PMS_P2;Temp;Humidity;BMP_temperature;BMP_pressure;BME280_temperature;BME280_humidity;BME280_pressure;Samples;Min_cycle;Max_cycle;Signal;HPM_P1;HPM_P2
2022/04/13 00:00:47;;;;;;;13.38;7.47;;;14.30;86.60;;;;;;5048079;28;20049;-44
2022/04/13 00:03:13;;;;;;;18.17;8.32;;;14.30;86.70;;;;;;5049631;28;20099;-44
2022/04/13 00:05:40;;;;;;;10.57;7.82;;;14.30;87.00;;;;;;5052169;28;20049;-44
2022/04/13 00:08:08;;;;;;;21.30;9.23;;;14.20;87.20;;;;;;5053259;28;20485;-44
2022/04/13 00:10:35;;;;;;;12.52;7.70;;;14.20;87.70;;;;;;5041970;28;20054;-44
2022/04/13 00:13:02;;;;;;;13.27;7.28;;;14.10;87.70;;;;;;5049650;28;20049;-45
2022/04/13 00:15:29;;;;;;;12.75;8.23;;;14.10;87.90;;;;;;5050211;28;20424;-45
2022/04/13 00:17:56;;;;;;;9.45;7.25;;;14.00;88.50;;;;;;5052686;28;20087;-45
2022/04/13 00:20:22;;;;;;;15.27;8.52;;;14.00;88.50;;;;;;5050572;28;20052;-44
2022/04/13 00:22:49;;;;;;;11.68;8.23;;;13.90;88.70;;;;;;5052791;28;20041;-43
2022/04/13 00:25:17;;;;;;;10.82;8.18;;;13.90;88.90;;;;;;5044718;28;20052;-43
2022/04/13 00:27:44;;;;;;;14.95;7.60;;;13.90;89.00;;;;;;5051003;28;20422;-44
2022/04/13 00:30:11;;;;;;;15.35;8.75;;;13.80;89.10;;;;;;5047781;28;20038;-44
2022/04/13 00:32:38;;;;;;;10.60;7.30;;;13.80;89.80;;;;;;5045456;28;20049;-44
2022/04/13 00:35:06;;;;;;;13.63;8.80;;;13.70;89.90;;;;;;5045591;28;20128;-44
2022/04/13 00:37:32;;;;;;;13.38;9.10;;;13.70;90.10;;;;;;5053240;28;20135;-44
2022/04/13 00:39:59;;;;;;;14.75;8.27;;;13.70;90.20;;;;;;5055615;28;20063;-44
2022/04/13 00:42:28;;;;;;;13.10;9.13;;;13.60;90.30;;;;;;5045129;28;20053;-44
2022/04/13 00:44:55;;;;;;;15.90;9.48;;;13.60;90.30;;;;;;5053422;28;20110;-44
2022/04/13 00:47:21;;;;;;;12.68;8.40;;;13.50;90.30;;;;;;5045660;28;20503;-44
2022/04/13 00:49:48;;;;;;;15.70;9.57;;;13.50;90.40;;;;;;5049893;28;20056;-44
2022/04/13 00:52:15;;;;;;;14.70;10.25;;;13.50;90.50;;;;;;5041421;28;20053;-44
2022/04/13 00:54:42;;;;;;;13.10;9.93;;;13.50;90.70;;;;;;5046266;28;20490;-43
2022/04/13 00:57:11;;;;;;;11.80;8.27;;;13.40;90.90;;;;;;5047361;28;20409;-44
2022/04/13 00:59:39;;;;;;;14.75;8.52;;;13.40;90.90;;;;;;5049439;28;20107;-44
2022/04/13 01:02:07;;;;;;;15.57;8.43;;;13.40;90.90;;;;;;5043790;28;20051;-44
2022/04/13 01:04:34;;;;;;;12.73;8.25;;;13.40;90.90;;;;;;5048811;28;20059;-44
2022/04/13 01:07:01;;;;;;;16.60;9.10;;;13.40;91.10;;;;;;5046393;28;20401;-48
2022/04/13 01:09:28;;;;;;;12.45;8.80;;;13.30;91.10;;;;;;5052283;28;20040;-43
2022/04/13 01:11:55;;;;;;;16.15;9.65;;;13.30;91.10;;;;;;5047802;28;20060;-43
2022/04/13 01:14:21;;;;;;;15.60;9.20;;;13.30;91.40;;;;;;5048612;28;20049;-44
2022/04/13 01:16:49;;;;;;;13.10;9.18;;;13.20;91.30;;;;;;5037182;28;20044;-44
2022/04/13 01:19:17;;;;;;;14.65;9.05;;;13.20;91.40;;;;;;5046430;28;20512;-42
2022/04/13 01:21:47;;;;;;;15.15;9.23;;;13.20;91.50;;;;;;5047804;28;20084;-43
2022/04/13 01:24:16;;;;;;;16.23;9.88;;;13.20;91.50;;;;;;5041398;28;20049;-44
2022/04/13 01:26:42;;;;;;;14.80;9.40;;;13.20;91.60;;;;;;5043345;28;20051;-44
2022/04/13 01:29:09;;;;;;;13.48;7.85;;;13.10;91.60;;;;;;5043960;28;20511;-43
2022/04/13 01:31:36;;;;;;;15.88;9.80;;;13.10;91.60;;;;;;5047253;28;20067;-43
2022/04/13 01:34:02;;;;;;;13.32;8.30;;;13.10;91.80;;;;;;5044169;28;20476;-43
2022/04/13 01:36:29;;;;;;;14.80;9.07;;;13.10;91.70;;;;;;5045603;28;20050;-43
2022/04/13 01:38:56;;;;;;;14.32;8.73;;;13.00;91.80;;;;;;5049695;28;20048;-44
2022/04/13 01:41:24;;;;;;;19.25;8.70;;;13.00;91.80;;;;;;5041729;28;20061;-44
2022/04/13 01:43:51;;;;;;;16.08;8.20;;;13.00;92.00;;;;;;5047247;28;20484;-45
2022/04/13 01:46:17;;;;;;;13.77;8.65;;;13.00;92.10;;;;;;5042067;28;20497;-43
2022/04/13 01:48:44;;;;;;;10.23;7.20;;;12.90;92.10;;;;;;5046581;28;20063;-43
2022/04/13 01:51:11;;;;;;;15.25;8.35;;;12.90;92.10;;;;;;5040104;28;20049;-43
2022/04/13 01:53:37;;;;;;;11.77;7.13;;;12.90;92.20;;;;;;5040486;28;20176;-43
2022/04/13 01:56:04;;;;;;;12.43;8.45;;;12.80;92.20;;;;;;5048197;28;20377;-45
2022/04/13 01:58:32;;;;;;;12.52;7.95;;;12.80;92.20;;;;;;5045700;28;20465;-44
2022/04/13 02:00:59;;;;;;;10.73;7.97;;;12.80;92.40;;;;;;5045808;28;20040;-44
2022/04/13 02:03:26;;;;;;;16.40;8.05;;;12.70;92.50;;;;;;5044247;28;20401;-44
2022/04/13 02:05:53;;;;;;;15.32;7.63;;;12.70;92.40;;;;;;5042188;28;20049;-44
2022/04/13 02:08:20;;;;;;;12.35;8.82;;;12.70;92.40;;;;;;5046103;28;20516;-44
2022/04/13 02:10:46;;;;;;;15.85;9.38;;;12.70;92.60;;;;;;5047365;28;20123;-44
2022/04/13 02:13:13;;;;;;;18.30;8.75;;;12.60;92.80;;;;;;5041491;28;20053;-44
2022/04/13 02:15:41;;;;;;;15.55;8.88;;;12.60;92.80;;;;;;5050541;28;20056;-44
2022/04/13 02:18:08;;;;;;;14.77;8.80;;;12.60;92.80;;;;;;5048301;28;20140;-44
2022/04/13 02:20:34;;;;;;;14.38;9.38;;;12.60;93.00;;;;;;5037171;28;20045;-45
2022/04/13 02:23:02;;;;;;;11.40;7.88;;;12.50;93.40;;;;;;5048788;28;20493;-45
2022/04/13 02:25:29;;;;;;;15.85;10.23;;;12.50;93.00;;;;;;5040152;28;20057;-44
2022/04/13 02:27:56;;;;;;;15.48;9.02;;;12.50;93.10;;;;;;5045065;28;20049;-44
2022/04/13 02:30:23;;;;;;;13.35;9.25;;;12.50;93.10;;;;;;5043316;28;20063;-44
2022/04/13 02:32:51;;;;;;;15.73;10.63;;;12.50;93.10;;;;;;5048088;28;20053;-44
2022/04/13 02:35:17;;;;;;;18.00;10.82;;;12.50;93.30;;;;;;5034472;28;20136;-44
2022/04/13 02:37:44;;;;;;;17.25;9.52;;;12.50;93.40;;;;;;5047331;28;20053;-45
2022/04/13 02:40:12;;;;;;;17.00;10.77;;;12.40;93.40;;;;;;5050880;28;20056;-45
2022/04/13 02:42:38;;;;;;;19.02;10.70;;;12.40;93.50;;;;;;5046302;28;20512;-45
2022/04/13 02:45:06;;;;;;;20.98;10.40;;;12.40;93.70;;;;;;5047755;28;20049;-44
2022/04/13 02:47:33;;;;;;;17.80;11.13;;;12.40;93.60;;;;;;5040844;28;20077;-43
2022/04/13 02:50:01;;;;;;;17.08;9.35;;;12.40;93.60;;;;;;5042881;28;20053;-44
2022/04/13 02:52:28;;;;;;;16.13;9.73;;;12.40;93.80;;;;;;5046258;28;20049;-44
2022/04/13 02:54:55;;;;;;;19.17;11.18;;;12.40;93.90;;;;;;5047655;28;20053;-44
2022/04/13 02:57:22;;;;;;;14.95;9.35;;;12.30;94.20;;;;;;5044060;28;20056;-43
2022/04/13 02:59:49;;;;;;;18.67;10.45;;;12.30;94.20;;;;;;5040055;28;20045;-43
2022/04/13 03:02:16;;;;;;;15.77;10.90;;;12.30;94.20;;;;;;5039274;28;20095;-43
2022/04/13 03:04:44;;;;;;;16.02;10.10;;;12.20;94.30;;;;;;5041055;28;20413;-43
2022/04/13 03:07:12;;;;;;;17.05;10.73;;;12.20;94.50;;;;;;5043875;28;20052;-44
2022/04/13 03:09:38;;;;;;;14.93;10.50;;;12.10;94.60;;;;;;5050148;28;20124;-43
2022/04/13 03:12:06;;;;;;;22.35;13.13;;;12.10;94.90;;;;;;5039662;28;20045;-44
2022/04/13 03:14:33;;;;;;;20.60;11.27;;;12.10;95.00;;;;;;5049683;28;20136;-45
2022/04/13 03:17:00;;;;;;;22.58;11.27;;;12.10;95.00;;;;;;5046121;28;20049;-44
2022/04/13 03:19:26;;;;;;;18.85;11.18;;;12.00;94.90;;;;;;5045831;28;21353;-45
2022/04/13 03:21:54;;;;;;;17.13;9.73;;;12.00;95.00;;;;;;5052312;28;20411;-44
2022/04/13 03:24:22;;;;;;;19.50;11.68;;;11.90;95.10;;;;;;5042383;28;20049;-44
2022/04/13 03:26:49;;;;;;;22.58;12.52;;;11.90;95.20;;;;;;5044510;28;20085;-44
2022/04/13 03:29:16;;;;;;;22.80;11.73;;;11.90;95.30;;;;;;5053102;28;20400;-45
2022/04/13 03:31:42;;;;;;;21.00;12.43;;;11.90;95.30;;;;;;5048763;28;20053;-44
2022/04/13 03:34:09;;;;;;;18.55;11.48;;;11.90;95.40;;;;;;5047621;28;20443;-44
2022/04/13 03:36:39;;;;;;;17.25;11.80;;;11.80;95.40;;;;;;5043329;28;20412;-44
2022/04/13 03:39:06;;;;;;;20.40;11.75;;;11.80;95.40;;;;;;5046266;28;20103;-44
2022/04/13 03:41:34;;;;;;;20.85;12.95;;;11.80;95.60;;;;;;5043091;28;20052;-44
2022/04/13 03:44:01;;;;;;;20.52;12.40;;;11.80;95.70;;;;;;5051936;28;20055;-44
2022/04/13 03:46:27;;;;;;;24.75;13.57;;;11.70;95.60;;;;;;5048849;28;20057;-45
2022/04/13 03:48:54;;;;;;;21.30;11.05;;;11.70;95.70;;;;;;5050998;28;20052;-44
2022/04/13 03:51:21;;;;;;;23.05;14.20;;;11.70;95.70;;;;;;5045030;28;20055;-43
2022/04/13 03:53:47;;;;;;;23.85;13.57;;;11.70;96.00;;;;;;5043415;28;20045;-44
2022/04/13 03:56:14;;;;;;;20.98;14.23;;;11.70;96.10;;;;;;5040452;28;20053;-45
2022/04/13 03:58:42;;;;;;;22.23;13.75;;;11.70;96.30;;;;;;5043529;28;20557;-44
2022/04/13 04:01:09;;;;;;;23.33;15.30;;;11.70;96.50;;;;;;5049387;28;20059;-44
2022/04/13 04:03:36;;;;;;;29.38;14.73;;;11.70;96.70;;;;;;5039133;28;20786;-44
2022/04/13 04:06:03;;;;;;;23.77;12.95;;;11.70;96.80;;;;;;5045738;28;20116;-45
2022/04/13 04:08:30;;;;;;;27.85;14.30;;;11.80;96.70;;;;;;5046957;28;20103;-44
2022/04/13 04:10:57;;;;;;;30.40;15.20;;;11.70;96.80;;;;;;5048734;28;20049;-44
2022/04/13 04:13:23;;;;;;;27.88;15.13;;;11.70;97.00;;;;;;5063648;28;20044;-43
2022/04/13 04:15:51;;;;;;;20.98;14.40;;;11.70;97.00;;;;;;5050036;28;20486;-43
2022/04/13 04:18:18;;;;;;;25.00;13.82;;;11.70;97.30;;;;;;5045344;28;20151;-43
2022/04/13 04:20:45;;;;;;;25.02;14.07;;;11.70;97.30;;;;;;5053634;28;20052;-43
2022/04/13 04:23:11;;;;;;;22.17;12.77;;;11.70;97.30;;;;;;5043265;28;20045;-43
2022/04/13 04:25:38;;;;;;;23.67;12.93;;;11.70;97.40;;;;;;5052826;28;20049;-44
2022/04/13 04:28:06;;;;;;;26.33;15.02;;;11.70;97.40;;;;;;5050417;28;20045;-43
2022/04/13 04:30:33;;;;;;;26.98;14.65;;;11.70;97.40;;;;;;5044417;28;20057;-43
2022/04/13 04:33:01;;;;;;;26.02;14.27;;;11.70;97.70;;;;;;5050390;28;20049;-44
2022/04/13 04:35:27;;;;;;;22.27;13.82;;;11.60;97.90;;;;;;5049894;28;20051;-44
2022/04/13 04:37:54;;;;;;;27.15;14.13;;;11.60;97.90;;;;;;5052582;28;20048;-44
2022/04/13 04:40:21;;;;;;;22.08;13.27;;;11.60;97.90;;;;;;5049756;28;20041;-44
2022/04/13 04:42:49;;;;;;;30.27;16.40;;;11.60;97.90;;;;;;5047703;28;20049;-44
2022/04/13 04:45:17;;;;;;;33.55;20.48;;;11.60;98.10;;;;;;5049532;28;20424;-45
2022/04/13 04:47:43;;;;;;;27.77;17.83;;;11.60;98.20;;;;;;5048514;28;20092;-44
2022/04/13 04:50:11;;;;;;;29.20;15.88;;;11.60;98.30;;;;;;5047813;28;20049;-43
2022/04/13 04:52:40;;;;;;;26.52;17.80;;;11.60;98.30;;;;;;5043255;28;20050;-43
2022/04/13 04:55:08;;;;;;;28.13;20.27;;;11.60;98.30;;;;;;5044262;28;20061;-44
2022/04/13 04:57:35;;;;;;;27.85;18.60;;;11.60;98.30;;;;;;5036577;28;20132;-44
2022/04/13 05:00:02;;;;;;;28.08;16.95;;;11.60;98.40;;;;;;5052036;28;20071;-43
2022/04/13 05:02:28;;;;;;;25.52;16.50;;;11.60;98.50;;;;;;5045274;28;20495;-43
2022/04/13 05:04:55;;;;;;;31.33;18.30;;;11.60;98.60;;;;;;5046011;28;20067;-43
2022/04/13 05:07:23;;;;;;;33.58;16.83;;;11.60;98.90;;;;;;5044452;28;20059;-44
2022/04/13 05:09:50;;;;;;;36.35;17.05;;;11.60;99.20;;;;;;5041622;28;20049;-43
2022/04/13 05:12:17;;;;;;;35.80;20.98;;;11.60;99.00;;;;;;5039824;28;20402;-43
2022/04/13 05:14:43;;;;;;;32.47;22.33;;;11.70;99.20;;;;;;5041003;28;20416;-43
2022/04/13 05:17:10;;;;;;;34.95;21.90;;;11.60;99.20;;;;;;5040874;28;20048;-44
2022/04/13 05:19:37;;;;;;;33.55;19.27;;;11.70;99.50;;;;;;5046014;28;20045;-43
2022/04/13 05:22:04;;;;;;;31.58;18.92;;;11.70;99.60;;;;;;5048782;28;20076;-44
2022/04/13 05:24:32;;;;;;;29.73;17.75;;;11.70;99.80;;;;;;5041334;28;20045;-43
2022/04/13 05:26:59;;;;;;;28.55;16.58;;;11.70;99.80;;;;;;5049995;28;20136;-43
2022/04/13 05:29:25;;;;;;;27.92;17.80;;;11.70;99.70;;;;;;5050806;28;20044;-43
2022/04/13 05:31:52;;;;;;;26.90;17.27;;;11.70;99.70;;;;;;5048629;28;20045;-43
2022/04/13 05:34:19;;;;;;;33.97;18.30;;;11.70;99.80;;;;;;5041217;28;20400;-43
2022/04/13 05:36:45;;;;;;;28.40;16.70;;;11.70;99.90;;;;;;5047595;28;20049;-43
2022/04/13 05:39:12;;;;;;;28.45;18.63;;;11.70;99.90;;;;;;5044032;28;20040;-43
2022/04/13 05:41:41;;;;;;;26.80;18.35;;;11.70;99.90;;;;;;5052973;28;20045;-43
2022/04/13 05:44:08;;;;;;;29.33;17.10;;;11.70;99.90;;;;;;5045858;28;20057;-43
2022/04/13 05:46:35;;;;;;;30.88;18.85;;;11.70;99.90;;;;;;5039574;28;20049;-43
2022/04/13 05:49:02;;;;;;;30.90;19.77;;;11.70;99.90;;;;;;5049811;28;20056;-44
2022/04/13 05:51:28;;;;;;;29.63;18.83;;;11.70;99.90;;;;;;5045238;28;20481;-43
2022/04/13 05:53:55;;;;;;;37.60;19.88;;;11.80;99.90;;;;;;5048136;28;20420;-44
2022/04/13 05:56:22;;;;;;;27.95;18.30;;;11.70;99.90;;;;;;5036190;28;20415;-43
2022/04/13 05:58:50;;;;;;;29.13;18.65;;;11.80;99.90;;;;;;5037693;28;20448;-44
2022/04/13 06:01:16;;;;;;;35.15;20.65;;;11.80;99.90;;;;;;5045476;28;20055;-44
2022/04/13 06:03:43;;;;;;;29.35;18.55;;;11.80;99.90;;;;;;5037544;28;20536;-44
2022/04/13 06:06:10;;;;;;;27.70;17.55;;;11.80;99.90;;;;;;5041474;28;20049;-44
2022/04/13 06:08:36;;;;;;;36.60;19.15;;;11.80;99.90;;;;;;5046525;28;20057;-44
2022/04/13 06:11:03;;;;;;;35.78;20.27;;;11.90;99.90;;;;;;5049031;28;20063;-45
2022/04/13 06:13:31;;;;;;;36.88;21.60;;;11.90;99.90;;;;;;5040714;28;20051;-45
2022/04/13 06:15:59;;;;;;;36.72;20.98;;;12.10;99.90;;;;;;5040278;28;20076;-45
2022/04/13 06:18:26;;;;;;;38.35;20.52;;;12.10;99.90;;;;;;5039386;28;20049;-45
2022/04/13 06:20:52;;;;;;;38.38;21.05;;;12.20;99.90;;;;;;5039506;28;20059;-45
2022/04/13 06:23:19;;;;;;;36.40;21.75;;;12.30;99.90;;;;;;5049197;28;20061;-45
2022/04/13 06:25:46;;;;;;;36.38;20.77;;;12.40;99.90;;;;;;5046239;28;20482;-42
2022/04/13 06:28:12;;;;;;;38.38;21.60;;;12.50;99.90;;;;;;5052228;28;20053;-44
2022/04/13 06:30:39;;;;;;;33.75;20.20;;;12.60;99.90;;;;;;5042817;28;20095;-43
2022/04/13 06:33:07;;;;;;;35.20;20.48;;;12.70;99.90;;;;;;5041971;28;20132;-44
2022/04/13 06:35:34;;;;;;;35.25;21.58;;;12.80;99.90;;;;;;5040309;28;20560;-44
2022/04/13 06:38:01;;;;;;;32.17;19.25;;;12.90;99.90;;;;;;5046135;28;20084;-43
2022/04/13 06:40:27;;;;;;;31.77;19.10;;;13.00;99.90;;;;;;5049552;28;20501;-44
2022/04/13 06:42:56;;;;;;;29.92;18.00;;;13.10;99.90;;;;;;5045932;28;20059;-44
2022/04/13 06:45:23;;;;;;;33.13;17.63;;;13.20;99.90;;;;;;5035516;28;20061;-42
2022/04/13 06:47:50;;;;;;;31.30;17.98;;;13.20;99.90;;;;;;5046504;28;20135;-44
2022/04/13 06:50:18;;;;;;;35.28;18.13;;;13.30;99.90;;;;;;5055910;28;20053;-43
2022/04/13 06:52:44;;;;;;;32.13;17.27;;;13.40;99.90;;;;;;5047494;28;20048;-43
2022/04/13 06:55:11;;;;;;;33.05;17.90;;;13.40;99.90;;;;;;5047678;28;20095;-43
2022/04/13 06:57:38;;;;;;;35.55;18.38;;;13.60;99.90;;;;;;5044935;28;20049;-43
2022/04/13 07:00:06;;;;;;;31.60;16.92;;;13.60;99.90;;;;;;5050183;28;20094;-43
2022/04/13 07:02:34;;;;;;;29.58;16.73;;;13.80;99.90;;;;;;5044721;28;20045;-43
2022/04/13 07:05:01;;;;;;;29.20;16.80;;;13.80;99.90;;;;;;5040120;28;20072;-43
2022/04/13 07:07:29;;;;;;;30.33;16.95;;;14.00;99.90;;;;;;5053953;28;20052;-44
2022/04/13 07:09:56;;;;;;;28.48;16.58;;;14.10;99.90;;;;;;5048361;28;20246;-43
2022/04/13 07:12:22;;;;;;;34.53;17.75;;;14.30;99.90;;;;;;5047991;28;20041;-43
2022/04/13 07:14:49;;;;;;;25.45;14.10;;;14.40;99.90;;;;;;5044185;28;21060;-44
2022/04/13 07:17:16;;;;;;;27.50;15.75;;;14.50;99.90;;;;;;5050257;28;20049;-44
2022/04/13 07:19:42;;;;;;;27.13;14.27;;;14.70;99.90;;;;;;5047064;28;20049;-44
2022/04/13 07:22:09;;;;;;;22.42;14.35;;;14.80;99.90;;;;;;5050060;28;20497;-43
2022/04/13 07:24:37;;;;;;;27.55;15.60;;;15.00;99.90;;;;;;5036288;28;20051;-43
2022/04/13 07:27:05;;;;;;;30.50;15.63;;;15.00;99.90;;;;;;5047203;28;20049;-44
2022/04/13 07:29:31;;;;;;;29.40;14.98;;;15.00;99.90;;;;;;5054046;28;20056;-44
2022/04/13 07:31:58;;;;;;;26.70;14.63;;;15.10;99.90;;;;;;5043947;28;20052;-43
2022/04/13 07:34:25;;;;;;;24.20;14.18;;;15.10;99.90;;;;;;5042358;28;20070;-43
2022/04/13 07:36:51;;;;;;;25.55;14.80;;;15.10;99.90;;;;;;5046461;28;20060;-43
2022/04/13 07:39:18;;;;;;;28.05;15.35;;;15.20;99.90;;;;;;5049970;28;20047;-43
2022/04/13 07:41:46;;;;;;;29.65;16.35;;;15.10;99.90;;;;;;5043030;28;20558;-43
2022/04/13 07:44:14;;;;;;;25.98;15.57;;;15.20;99.90;;;;;;5041779;28;20056;-43
2022/04/13 07:46:40;;;;;;;31.58;15.90;;;15.20;99.90;;;;;;5051577;28;20049;-45
2022/04/13 07:49:08;;;;;;;27.90;15.98;;;15.20;99.90;;;;;;5046886;28;20044;-44
2022/04/13 07:51:35;;;;;;;36.33;16.58;;;15.20;99.90;;;;;;5054654;28;20383;-44
2022/04/13 07:54:02;;;;;;;28.08;13.85;;;15.20;99.90;;;;;;5053545;28;20564;-44
2022/04/13 07:56:29;;;;;;;25.90;13.68;;;15.40;99.90;;;;;;5046663;28;20053;-44
2022/04/13 07:58:57;;;;;;;20.95;10.85;;;15.30;99.90;;;;;;5045187;28;20053;-44
2022/04/13 08:01:24;;;;;;;22.77;11.07;;;15.30;99.90;;;;;;5049326;28;20135;-44
2022/04/13 08:03:51;;;;;;;20.80;10.70;;;15.30;99.90;;;;;;5050777;28;20527;-44
2022/04/13 08:06:18;;;;;;;20.30;10.70;;;15.40;99.90;;;;;;5045259;28;20045;-44
2022/04/13 08:08:44;;;;;;;21.45;10.77;;;15.40;99.90;;;;;;5045393;28;20057;-44
2022/04/13 08:11:11;;;;;;;19.90;10.93;;;15.50;99.90;;;;;;5046294;28;20053;-44
2022/04/13 08:13:38;;;;;;;20.52;10.57;;;15.60;99.90;;;;;;5040079;28;20514;-44
2022/04/13 08:16:06;;;;;;;18.95;10.82;;;15.80;99.90;;;;;;5043366;28;20050;-44
2022/04/13 08:18:33;;;;;;;22.17;10.77;;;15.90;99.90;;;;;;5045643;28;20081;-45
2022/04/13 08:21:00;;;;;;;19.25;11.15;;;16.00;99.90;;;;;;5046175;28;20420;-44
2022/04/13 08:23:26;;;;;;;22.30;10.30;;;16.10;99.90;;;;;;5047071;28;20056;-44
2022/04/13 08:25:53;;;;;;;17.48;9.73;;;16.10;99.90;;;;;;5045269;28;20053;-44
2022/04/13 08:28:20;;;;;;;20.63;10.00;;;16.10;99.90;;;;;;5044761;28;20055;-45
2022/04/13 08:30:46;;;;;;;20.17;10.77;;;16.20;99.90;;;;;;5046221;28;20063;-44
2022/04/13 08:33:14;;;;;;;20.13;10.85;;;16.20;99.90;;;;;;5047365;28;20053;-45
2022/04/13 08:35:41;;;;;;;23.95;11.48;;;16.30;99.90;;;;;;5042201;28;20057;-45
2022/04/13 08:38:08;;;;;;;18.58;9.40;;;16.30;99.90;;;;;;5034256;28;20045;-44
2022/04/13 08:40:36;;;;;;;17.42;9.20;;;16.50;99.90;;;;;;5034752;28;20409;-44
2022/04/13 08:43:05;;;;;;;20.90;10.25;;;16.60;99.90;;;;;;5049274;28;20095;-45
2022/04/13 08:45:35;;;;;;;19.92;9.07;;;16.80;99.90;;;;;;5048474;28;20045;-44
2022/04/13 08:48:01;;;;;;;19.65;8.13;;;16.90;99.90;;;;;;5040820;28;20079;-45
2022/04/13 08:50:30;;;;;;;16.75;7.53;;;17.10;99.50;;;;;;5044797;28;20123;-44
2022/04/13 08:52:59;;;;;;;17.70;9.02;;;17.20;99.00;;;;;;5044659;28;20060;-45
2022/04/13 08:55:26;;;;;;;18.58;8.07;;;17.40;99.00;;;;;;5045036;28;20136;-45
2022/04/13 08:57:57;;;;;;;14.25;8.00;;;17.50;99.00;;;;;;5046797;28;20056;-47
2022/04/13 09:00:23;;;;;;;17.73;8.00;;;17.60;98.90;;;;;;5050025;28;20400;-44
2022/04/13 09:03:12;;;;;;;14.75;7.40;;;17.70;98.70;;;;;;5039233;28;20525;-45
2022/04/13 09:05:40;;;;;;;17.95;6.82;;;17.80;98.40;;;;;;5049621;28;20140;-45
2022/04/13 09:08:10;;;;;;;16.85;7.32;;;18.00;98.00;;;;;;5033731;28;20052;-46
2022/04/13 09:10:37;;;;;;;14.00;6.55;;;18.10;97.40;;;;;;5037600;28;20063;-44
2022/04/13 09:13:04;;;;;;;16.05;7.47;;;18.10;96.90;;;;;;5045017;28;20050;-44
2022/04/13 09:15:30;;;;;;;14.27;6.15;;;18.20;96.80;;;;;;5057355;28;20084;-44
2022/04/13 09:17:57;;;;;;;12.95;6.72;;;18.30;96.60;;;;;;5040196;28;20064;-44
2022/04/13 09:20:24;;;;;;;14.43;5.97;;;18.40;96.40;;;;;;5052897;28;20412;-44
2022/04/13 09:22:54;;;;;;;13.48;5.68;;;18.50;96.20;;;;;;5051490;28;20140;-44
2022/04/13 09:25:21;;;;;;;16.13;6.20;;;18.70;95.70;;;;;;5043634;28;20434;-44
2022/04/13 09:27:48;;;;;;;15.10;6.30;;;18.70;95.40;;;;;;5033880;28;20057;-44
2022/04/13 09:30:15;;;;;;;11.25;6.13;;;18.70;95.20;;;;;;5048658;28;20390;-45
2022/04/13 09:32:42;;;;;;;11.70;6.07;;;18.80;95.20;;;;;;5044512;28;20046;-44
2022/04/13 09:35:09;;;;;;;14.00;6.32;;;18.90;95.00;;;;;;5041640;28;20053;-44
2022/04/13 09:37:36;;;;;;;14.88;6.15;;;18.90;94.90;;;;;;5044001;28;20064;-44
2022/04/13 09:40:05;;;;;;;9.65;5.32;;;19.00;94.90;;;;;;5045874;28;20046;-45
2022/04/13 09:42:32;;;;;;;14.02;6.55;;;19.10;94.60;;;;;;5066657;28;20045;-44
2022/04/13 09:45:02;;;;;;;12.02;6.43;;;19.10;94.60;;;;;;5043235;28;20055;-44
2022/04/13 09:47:30;;;;;;;13.73;6.38;;;19.10;94.60;;;;;;5044683;28;20046;-46
2022/04/13 09:49:56;;;;;;;12.85;5.90;;;19.10;94.20;;;;;;5051750;28;20041;-45
2022/04/13 09:52:27;;;;;;;14.00;6.47;;;19.10;94.40;;;;;;5042909;28;20532;-44
2022/04/13 09:54:54;;;;;;;12.80;6.27;;;19.20;94.10;;;;;;5044391;28;20053;-44
2022/04/13 09:57:22;;;;;;;15.70;6.57;;;19.20;94.10;;;;;;5044470;28;20380;-45
2022/04/13 09:59:54;;;;;;;13.57;6.15;;;19.30;93.90;;;;;;5039090;28;20052;-44
2022/04/13 10:02:34;;;;;;;12.85;6.72;;;19.40;94.30;;;;;;5043597;28;20111;-45
2022/04/13 10:05:01;;;;;;;15.35;6.25;;;19.70;94.10;;;;;;5037972;28;20052;-44
2022/04/13 10:07:27;;;;;;;12.30;6.38;;;19.80;93.50;;;;;;5043139;28;20049;-45
2022/04/13 10:09:54;;;;;;;9.52;5.47;;;20.00;93.00;;;;;;5050887;28;20055;-45
2022/04/13 10:12:22;;;;;;;10.00;5.25;;;20.20;93.10;;;;;;5036771;28;20132;-44
2022/04/13 10:14:49;;;;;;;12.00;4.88;;;20.40;92.90;;;;;;5032740;28;20042;-44
2022/04/13 10:17:16;;;;;;;10.65;4.78;;;20.60;92.10;;;;;;5047784;28;20056;-44
2022/04/13 10:19:43;;;;;;;9.30;4.88;;;20.60;91.50;;;;;;5047981;28;20060;-44
2022/04/13 10:22:10;;;;;;;11.13;4.70;;;20.80;91.80;;;;;;5038767;28;20075;-45
2022/04/13 10:24:39;;;;;;;14.02;5.72;;;20.90;91.30;;;;;;5040579;28;20053;-45
2022/04/13 10:27:07;;;;;;;10.07;5.20;;;21.10;90.80;;;;;;5043842;28;20060;-45
2022/04/13 10:29:36;;;;;;;12.73;5.30;;;21.30;90.80;;;;;;5050884;28;20068;-43
2022/04/13 10:32:07;;;;;;;11.63;4.88;;;21.30;90.00;;;;;;5047770;28;20486;-45
2022/04/13 10:34:34;;;;;;;16.17;5.43;;;21.40;89.70;;;;;;5041042;28;20052;-44
2022/04/13 10:37:01;;;;;;;9.07;4.10;;;21.40;89.40;;;;;;5043713;28;20047;-43
2022/04/13 10:39:28;;;;;;;10.10;4.53;;;21.40;88.40;;;;;;5036716;28;20063;-44
2022/04/13 10:41:55;;;;;;;10.45;4.22;;;21.40;88.20;;;;;;5040494;28;20053;-45
2022/04/13 10:44:26;;;;;;;9.48;4.30;;;21.50;87.10;;;;;;5038091;28;20465;-45
2022/04/13 10:46:54;;;;;;;6.82;4.50;;;21.50;86.60;;;;;;5034831;28;20050;-45
2022/04/13 10:49:22;;;;;;;14.02;4.50;;;21.40;87.50;;;;;;5051465;28;20041;-43
2022/04/13 10:51:49;;;;;;;7.15;3.70;;;21.30;86.50;;;;;;5043568;28;20059;-43
2022/04/13 10:54:15;;;;;;;8.52;2.83;;;21.40;86.40;;;;;;5043648;28;20049;-43
2022/04/13 10:56:42;;;;;;;6.70;2.35;;;21.50;86.30;;;;;;5051368;28;20420;-44
2022/04/13 10:59:11;;;;;;;5.22;2.30;;;21.60;84.40;;;;;;5036199;28;20045;-44
2022/04/13 11:01:41;;;;;;;3.33;1.52;;;21.80;83.10;;;;;;5044183;28;20456;-43
2022/04/13 11:04:09;;;;;;;4.65;2.17;;;21.80;80.60;;;;;;5045650;28;20075;-44
2022/04/13 11:06:36;;;;;;;8.52;2.60;;;21.80;78.60;;;;;;5042663;28;20059;-45
2022/04/13 11:09:04;;;;;;;6.13;2.67;;;21.70;78.20;;;;;;5050246;28;20083;-44
2022/04/13 11:11:31;;;;;;;6.18;3.17;;;21.60;78.80;;;;;;5043881;28;20565;-43
2022/04/13 11:13:58;;;;;;;6.32;2.75;;;21.60;78.50;;;;;;5042617;28;20049;-43
2022/04/13 11:16:27;;;;;;;6.70;2.55;;;21.50;79.10;;;;;;5043489;28;20505;-44
2022/04/13 11:19:20;;;;;;;8.27;3.13;;;21.60;79.30;;;;;;5049890;28;20049;-43
2022/04/13 11:22:10;;;;;;;5.75;3.30;;;21.60;78.20;;;;;;5038210;28;20049;-44
2022/04/13 11:24:38;;;;;;;9.10;3.30;;;21.70;78.60;;;;;;5051283;28;20064;-43
2022/04/13 11:27:05;;;;;;;5.97;3.22;;;21.60;77.80;;;;;;5041248;28;20060;-43
2022/04/13 11:29:33;;;;;;;9.40;3.15;;;21.60;77.80;;;;;;5040069;28;20065;-44
2022/04/13 11:32:09;;;;;;;8.55;2.90;;;21.60;78.90;;;;;;5041929;28;20075;-43
2022/04/13 11:34:39;;;;;;;6.13;3.10;;;21.60;77.00;;;;;;5050105;28;20063;-45
2022/04/13 11:37:08;;;;;;;10.98;3.55;;;21.60;78.30;;;;;;5057752;28;20048;-44
2022/04/13 11:39:44;;;;;;;9.05;3.25;;;21.50;78.00;;;;;;5051430;28;20501;-44
2022/04/13 11:42:15;;;;;;;10.07;3.05;;;21.50;78.30;;;;;;5050818;28;20059;-44
2022/04/13 11:44:48;;;;;;;10.05;3.42;;;21.40;78.40;;;;;;5043994;28;20596;-46
2022/04/13 11:47:15;;;;;;;9.55;3.65;;;21.30;78.80;;;;;;5043220;28;20041;-45
2022/04/13 11:49:56;;;;;;;11.07;3.80;;;21.20;79.20;;;;;;5052964;28;20055;-44
2022/04/13 11:52:42;;;;;;;10.10;4.60;;;21.10;79.50;;;;;;5041489;28;20053;-44
2022/04/13 11:55:18;;;;;;;13.55;4.53;;;20.90;78.90;;;;;;5048034;28;20056;-44
2022/04/13 11:58:22;;;;;;;13.70;4.82;;;20.70;79.40;;;;;;5050823;28;20140;-44
2022/04/13 12:00:54;;;;;;;12.90;5.20;;;20.70;80.50;;;;;;5047522;28;20053;-43
2022/04/13 12:03:23;;;;;;;12.55;4.55;;;20.70;80.60;;;;;;5049425;28;20044;-44
2022/04/13 12:05:51;;;;;;;13.35;4.20;;;20.70;79.30;;;;;;5044371;28;20049;-43
2022/04/13 12:08:19;;;;;;;7.72;2.75;;;20.70;79.30;;;;;;5045823;28;20793;-44
2022/04/13 12:10:47;;;;;;;9.40;3.47;;;20.60;78.40;;;;;;5046425;28;20041;-44
2022/04/13 12:13:14;;;;;;;12.35;3.70;;;20.60;78.70;;;;;;5052762;28;20599;-44
2022/04/13 12:15:46;;;;;;;9.43;3.50;;;20.60;78.80;;;;;;5055896;28;20084;-43
2022/04/13 12:18:12;;;;;;;10.32;4.22;;;20.50;78.60;;;;;;5048985;28;20397;-43
2022/04/13 12:20:39;;;;;;;11.57;4.25;;;20.40;79.20;;;;;;5047014;28;20060;-44
2022/04/13 12:23:25;;;;;;;12.32;4.57;;;20.40;79.50;;;;;;5050923;28;20145;-43
2022/04/13 12:25:52;;;;;;;9.70;4.10;;;20.40;79.70;;;;;;5048774;28;20084;-44
2022/04/13 12:28:22;;;;;;;11.85;4.65;;;20.30;80.20;;;;;;5051273;28;20053;-45
2022/04/13 12:30:55;;;;;;;12.15;4.20;;;20.20;80.60;;;;;;5046868;28;20247;-43
2022/04/13 12:33:25;;;;;;;11.18;3.38;;;20.10;80.60;;;;;;5042573;28;20079;-45
2022/04/13 12:35:52;;;;;;;8.73;2.03;;;20.10;80.60;;;;;;5048321;28;20052;-44